sensor_id;sensor_type;location;lat;lon;timestamp;temperature;humidity
5086;DHT22;4715;51.660;7.082;2022-07-18T00:00:14;20.20;85.60
5086;DHT22;4715;51.660;7.082;2022-07-18T00:02:36;20.20;85.70
5086;DHT22;4715;51.660;7.082;2022-07-18T00:04:58;20.20;85.90
5086;DHT22;4715;51.660;7.082;2022-07-18T00:07:20;20.20;86.00
5086;DHT22;4715;51.660;7.082;2022-07-18T00:09:43;20.20;86.10
5086;DHT22;4715;51.660;7.082;2022-07-18T00:12:06;20.10;86.10
5086;DHT22;4715;51.660;7.082;2022-07-18T00:14:28;20.10;86.20
5086;DHT22;4715;51.660;7.082;2022-07-18T00:16:50;20.10;86.30
5086;DHT22;4715;51.660;7.082;2022-07-18T00:19:13;20.10;86.40
5086;DHT22;4715;51.660;7.082;2022-07-18T00:21:35;20.10;86.50
5086;DHT22;4715;51.660;7.082;2022-07-18T00:23:56;20.10;86.50
5086;DHT22;4715;51.660;7.082;2022-07-18T00:26:20;20.10;86.50
5086;DHT22;4715;51.660;7.082;2022-07-18T00:28:42;20.10;86.60
5086;DHT22;4715;51.660;7.082;2022-07-18T00:31:04;20.00;86.60
5086;DHT22;4715;51.660;7.082;2022-07-18T00:33:26;20.00;86.60
5086;DHT22;4715;51.660;7.082;2022-07-18T00:35:48;20.00;86.70
5086;DHT22;4715;51.660;7.082;2022-07-18T00:38:10;20.00;86.90
5086;DHT22;4715;51.660;7.082;2022-07-18T00:40:32;19.90;86.90
5086;DHT22;4715;51.660;7.082;2022-07-18T00:42:55;19.90;87.00
5086;DHT22;4715;51.660;7.082;2022-07-18T00:45:17;19.80;87.10
5086;DHT22;4715;51.660;7.082;2022-07-18T00:47:39;19.80;87.30
5086;DHT22;4715;51.660;7.082;2022-07-18T00:50:02;19.70;87.40
5086;DHT22;4715;51.660;7.082;2022-07-18T00:52:26;19.70;87.60
5086;DHT22;4715;51.660;7.082;2022-07-18T00:54:48;19.70;87.80
5086;DHT22;4715;51.660;7.082;2022-07-18T00:57:10;19.60;87.80
5086;DHT22;4715;51.660;7.082;2022-07-18T00:59:34;19.60;88.00
5086;DHT22;4715;51.660;7.082;2022-07-18T01:02:18;19.60;88.00
5086;DHT22;4715;51.660;7.082;2022-07-18T01:04:40;19.60;88.20
5086;DHT22;4715;51.660;7.082;2022-07-18T01:07:02;19.60;88.40
5086;DHT22;4715;51.660;7.082;2022-07-18T01:09:24;19.50;88.40
5086;DHT22;4715;51.660;7.082;2022-07-18T01:11:47;19.50;88.60
5086;DHT22;4715;51.660;7.082;2022-07-18T01:14:09;19.50;88.70
5086;DHT22;4715;51.660;7.082;2022-07-18T01:16:33;19.40;88.80
5086;DHT22;4715;51.660;7.082;2022-07-18T01:18:55;19.40;89.60
5086;DHT22;4715;51.660;7.082;2022-07-18T01:21:19;19.40;89.00
5086;DHT22;4715;51.660;7.082;2022-07-18T01:23:41;19.40;89.10
5086;DHT22;4715;51.660;7.082;2022-07-18T01:26:03;19.40;89.20
5086;DHT22;4715;51.660;7.082;2022-07-18T01:28:25;19.40;89.30
5086;DHT22;4715;51.660;7.082;2022-07-18T01:30:47;19.40;89.40
5086;DHT22;4715;51.660;7.082;2022-07-18T01:33:09;19.30;89.40
5086;DHT22;4715;51.660;7.082;2022-07-18T01:35:31;19.30;89.50
5086;DHT22;4715;51.660;7.082;2022-07-18T01:37:56;19.30;89.60
5086;DHT22;4715;51.660;7.082;2022-07-18T01:40:18;19.30;89.70
5086;DHT22;4715;51.660;7.082;2022-07-18T01:42:40;19.30;89.70
5086;DHT22;4715;51.660;7.082;2022-07-18T01:45:03;19.30;89.90
5086;DHT22;4715;51.660;7.082;2022-07-18T01:47:25;19.30;89.90
5086;DHT22;4715;51.660;7.082;2022-07-18T01:49:47;19.20;89.90
5086;DHT22;4715;51.660;7.082;2022-07-18T01:52:09;19.20;90.00
5086;DHT22;4715;51.660;7.082;2022-07-18T01:54:34;19.20;90.00
5086;DHT22;4715;51.660;7.082;2022-07-18T01:56:56;19.10;90.10
5086;DHT22;4715;51.660;7.082;2022-07-18T01:59:19;19.10;90.10
5086;DHT22;4715;51.660;7.082;2022-07-18T02:01:41;19.10;90.20
5086;DHT22;4715;51.660;7.082;2022-07-18T02:04:03;19.00;90.20
5086;DHT22;4715;51.660;7.082;2022-07-18T02:06:25;19.00;90.30
5086;DHT22;4715;51.660;7.082;2022-07-18T02:08:48;19.00;90.30
5086;DHT22;4715;51.660;7.082;2022-07-18T02:11:11;18.90;90.30
5086;DHT22;4715;51.660;7.082;2022-07-18T02:13:33;18.90;90.40
5086;DHT22;4715;51.660;7.082;2022-07-18T02:15:55;18.90;90.50
5086;DHT22;4715;51.660;7.082;2022-07-18T02:18:17;18.90;90.60
5086;DHT22;4715;51.660;7.082;2022-07-18T02:20:39;18.80;90.60
5086;DHT22;4715;51.660;7.082;2022-07-18T02:23:01;18.80;90.70
5086;DHT22;4715;51.660;7.082;2022-07-18T02:25:23;18.80;90.70
5086;DHT22;4715;51.660;7.082;2022-07-18T02:27:46;18.80;90.80
5086;DHT22;4715;51.660;7.082;2022-07-18T02:30:09;18.80;90.80
5086;DHT22;4715;51.660;7.082;2022-07-18T02:32:32;18.80;90.90
5086;DHT22;4715;51.660;7.082;2022-07-18T02:34:55;18.80;90.90
5086;DHT22;4715;51.660;7.082;2022-07-18T02:37:17;18.80;90.90
5086;DHT22;4715;51.660;7.082;2022-07-18T02:39:39;18.70;90.90
5086;DHT22;4715;51.660;7.082;2022-07-18T02:42:01;18.70;90.90
5086;DHT22;4715;51.660;7.082;2022-07-18T02:44:24;18.70;90.90
5086;DHT22;4715;51.660;7.082;2022-07-18T02:46:47;18.70;90.90
5086;DHT22;4715;51.660;7.082;2022-07-18T02:49:09;18.70;90.90
5086;DHT22;4715;51.660;7.082;2022-07-18T02:51:31;18.70;90.90
5086;DHT22;4715;51.660;7.082;2022-07-18T02:53:54;18.70;90.90
5086;DHT22;4715;51.660;7.082;2022-07-18T02:56:16;18.70;90.90
5086;DHT22;4715;51.660;7.082;2022-07-18T02:58:38;18.70;90.90
5086;DHT22;4715;51.660;7.082;2022-07-18T03:01:01;18.70;90.90
5086;DHT22;4715;51.660;7.082;2022-07-18T03:03:23;18.70;90.90
5086;DHT22;4715;51.660;7.082;2022-07-18T03:05:45;18.70;90.90
5086;DHT22;4715;51.660;7.082;2022-07-18T03:08:07;18.60;91.20
5086;DHT22;4715;51.660;7.082;2022-07-18T03:10:29;18.60;91.30
5086;DHT22;4715;51.660;7.082;2022-07-18T03:12:51;18.50;90.90
5086;DHT22;4715;51.660;7.082;2022-07-18T03:15:13;18.50;91.00
5086;DHT22;4715;51.660;7.082;2022-07-18T03:17:36;18.50;91.10
5086;DHT22;4715;51.660;7.082;2022-07-18T03:19:58;18.50;91.20
5086;DHT22;4715;51.660;7.082;2022-07-18T03:22:20;18.40;91.20
5086;DHT22;4715;51.660;7.082;2022-07-18T03:24:42;18.40;91.30
5086;DHT22;4715;51.660;7.082;2022-07-18T03:27:03;18.30;91.30
5086;DHT22;4715;51.660;7.082;2022-07-18T03:29:26;18.30;91.40
5086;DHT22;4715;51.660;7.082;2022-07-18T03:31:47;18.20;91.50
5086;DHT22;4715;51.660;7.082;2022-07-18T03:34:11;18.20;91.90
5086;DHT22;4715;51.660;7.082;2022-07-18T03:36:33;18.10;91.60
5086;DHT22;4715;51.660;7.082;2022-07-18T03:38:54;18.10;91.60
5086;DHT22;4715;51.660;7.082;2022-07-18T03:41:16;18.10;92.00
5086;DHT22;4715;51.660;7.082;2022-07-18T03:43:39;18.00;91.70
5086;DHT22;4715;51.660;7.082;2022-07-18T03:46:01;18.00;91.80
5086;DHT22;4715;51.660;7.082;2022-07-18T03:48:23;18.00;91.80
5086;DHT22;4715;51.660;7.082;2022-07-18T03:50:46;18.00;91.90
5086;DHT22;4715;51.660;7.082;2022-07-18T03:53:08;17.90;91.90
5086;DHT22;4715;51.660;7.082;2022-07-18T03:55:30;17.90;92.00
5086;DHT22;4715;51.660;7.082;2022-07-18T03:57:52;17.90;92.00
5086;DHT22;4715;51.660;7.082;2022-07-18T04:00:14;17.90;92.10
5086;DHT22;4715;51.660;7.082;2022-07-18T04:02:38;17.90;92.10
5086;DHT22;4715;51.660;7.082;2022-07-18T04:05:00;17.90;92.20
5086;DHT22;4715;51.660;7.082;2022-07-18T04:07:23;17.90;92.20
5086;DHT22;4715;51.660;7.082;2022-07-18T04:09:46;17.90;92.30
5086;DHT22;4715;51.660;7.082;2022-07-18T04:12:07;17.90;92.30
5086;DHT22;4715;51.660;7.082;2022-07-18T04:14:30;17.90;92.30
5086;DHT22;4715;51.660;7.082;2022-07-18T04:16:51;17.90;92.40
5086;DHT22;4715;51.660;7.082;2022-07-18T04:19:13;18.00;92.40
5086;DHT22;4715;51.660;7.082;2022-07-18T04:21:37;18.00;92.50
5086;DHT22;4715;51.660;7.082;2022-07-18T04:24:00;18.00;92.50
5086;DHT22;4715;51.660;7.082;2022-07-18T04:26:22;18.00;92.60
5086;DHT22;4715;51.660;7.082;2022-07-18T04:28:44;18.00;92.60
5086;DHT22;4715;51.660;7.082;2022-07-18T04:31:06;18.00;92.70
5086;DHT22;4715;51.660;7.082;2022-07-18T04:33:28;18.10;92.70
5086;DHT22;4715;51.660;7.082;2022-07-18T04:35:50;18.10;92.80
5086;DHT22;4715;51.660;7.082;2022-07-18T04:38:12;18.10;92.80
5086;DHT22;4715;51.660;7.082;2022-07-18T04:40:35;18.10;92.80
5086;DHT22;4715;51.660;7.082;2022-07-18T04:42:57;18.10;92.90
5086;DHT22;4715;51.660;7.082;2022-07-18T04:45:19;18.20;92.90
5086;DHT22;4715;51.660;7.082;2022-07-18T04:47:43;18.20;93.00
5086;DHT22;4715;51.660;7.082;2022-07-18T04:50:06;18.30;93.00
5086;DHT22;4715;51.660;7.082;2022-07-18T04:52:35;18.30;93.00
5086;DHT22;4715;51.660;7.082;2022-07-18T04:54:57;18.40;93.10
5086;DHT22;4715;51.660;7.082;2022-07-18T04:57:21;18.40;93.10
5086;DHT22;4715;51.660;7.082;2022-07-18T04:59:43;18.40;93.10
5086;DHT22;4715;51.660;7.082;2022-07-18T05:02:05;18.40;93.10
5086;DHT22;4715;51.660;7.082;2022-07-18T05:04:27;18.50;93.20
5086;DHT22;4715;51.660;7.082;2022-07-18T05:06:50;18.50;93.20
5086;DHT22;4715;51.660;7.082;2022-07-18T05:09:12;18.60;93.20
5086;DHT22;4715;51.660;7.082;2022-07-18T05:11:34;18.60;93.20
5086;DHT22;4715;51.660;7.082;2022-07-18T05:13:58;18.70;93.60
5086;DHT22;4715;51.660;7.082;2022-07-18T05:16:19;18.70;93.30
5086;DHT22;4715;51.660;7.082;2022-07-18T05:18:41;18.80;93.30
5086;DHT22;4715;51.660;7.082;2022-07-18T05:21:03;18.80;93.30
5086;DHT22;4715;51.660;7.082;2022-07-18T05:23:25;18.90;93.40
5086;DHT22;4715;51.660;7.082;2022-07-18T05:25:50;19.00;93.40
5086;DHT22;4715;51.660;7.082;2022-07-18T05:28:13;19.00;93.40
5086;DHT22;4715;51.660;7.082;2022-07-18T05:30:36;19.10;93.40
5086;DHT22;4715;51.660;7.082;2022-07-18T05:32:58;19.10;93.30
5086;DHT22;4715;51.660;7.082;2022-07-18T05:35:20;19.20;93.40
5086;DHT22;4715;51.660;7.082;2022-07-18T05:37:43;19.20;93.40
5086;DHT22;4715;51.660;7.082;2022-07-18T05:40:07;19.30;93.40
5086;DHT22;4715;51.660;7.082;2022-07-18T05:42:43;19.30;93.40
5086;DHT22;4715;51.660;7.082;2022-07-18T05:45:07;19.40;93.40
5086;DHT22;4715;51.660;7.082;2022-07-18T05:47:31;19.40;93.40
5086;DHT22;4715;51.660;7.082;2022-07-18T05:49:56;19.50;93.50
5086;DHT22;4715;51.660;7.082;2022-07-18T05:52:18;19.60;93.50
5086;DHT22;4715;51.660;7.082;2022-07-18T05:54:41;19.60;93.60
5086;DHT22;4715;51.660;7.082;2022-07-18T05:57:03;19.70;93.50
5086;DHT22;4715;51.660;7.082;2022-07-18T05:59:25;19.70;93.50
5086;DHT22;4715;51.660;7.082;2022-07-18T06:01:48;19.80;93.50
5086;DHT22;4715;51.660;7.082;2022-07-18T06:06:42;19.90;93.50
5086;DHT22;4715;51.660;7.082;2022-07-18T06:09:10;20.00;93.50
5086;DHT22;4715;51.660;7.082;2022-07-18T06:11:33;20.10;93.50
5086;DHT22;4715;51.660;7.082;2022-07-18T06:13:57;20.20;93.60
5086;DHT22;4715;51.660;7.082;2022-07-18T06:16:19;20.30;93.50
5086;DHT22;4715;51.660;7.082;2022-07-18T06:18:42;20.40;93.50
5086;DHT22;4715;51.660;7.082;2022-07-18T06:21:04;20.40;93.50
5086;DHT22;4715;51.660;7.082;2022-07-18T06:23:27;20.50;93.50
5086;DHT22;4715;51.660;7.082;2022-07-18T06:25:50;20.60;93.50
5086;DHT22;4715;51.660;7.082;2022-07-18T06:28:12;20.70;93.50
5086;DHT22;4715;51.660;7.082;2022-07-18T06:30:34;20.80;93.50
5086;DHT22;4715;51.660;7.082;2022-07-18T06:32:57;20.90;93.50
5086;DHT22;4715;51.660;7.082;2022-07-18T06:35:19;21.00;93.50
5086;DHT22;4715;51.660;7.082;2022-07-18T06:37:41;21.10;93.40
5086;DHT22;4715;51.660;7.082;2022-07-18T06:40:05;21.20;93.30
5086;DHT22;4715;51.660;7.082;2022-07-18T06:42:28;21.30;93.30
5086;DHT22;4715;51.660;7.082;2022-07-18T06:44:50;21.40;93.30
5086;DHT22;4715;51.660;7.082;2022-07-18T06:47:12;21.60;93.30
5086;DHT22;4715;51.660;7.082;2022-07-18T06:49:35;21.70;93.30
5086;DHT22;4715;51.660;7.082;2022-07-18T06:51:56;21.90;93.30
5086;DHT22;4715;51.660;7.082;2022-07-18T06:54:18;22.00;93.20
5086;DHT22;4715;51.660;7.082;2022-07-18T06:56:42;22.10;93.10
5086;DHT22;4715;51.660;7.082;2022-07-18T06:59:04;22.30;93.00
5086;DHT22;4715;51.660;7.082;2022-07-18T07:01:26;22.40;92.80
5086;DHT22;4715;51.660;7.082;2022-07-18T07:03:48;22.50;92.70
5086;DHT22;4715;51.660;7.082;2022-07-18T07:06:10;22.70;92.60
5086;DHT22;4715;51.660;7.082;2022-07-18T07:08:32;22.80;92.10
5086;DHT22;4715;51.660;7.082;2022-07-18T07:10:54;23.00;91.60
5086;DHT22;4715;51.660;7.082;2022-07-18T07:13:18;23.10;91.20
5086;DHT22;4715;51.660;7.082;2022-07-18T07:15:40;23.20;90.80
5086;DHT22;4715;51.660;7.082;2022-07-18T07:18:03;23.30;90.90
5086;DHT22;4715;51.660;7.082;2022-07-18T07:20:26;23.50;90.30
5086;DHT22;4715;51.660;7.082;2022-07-18T07:22:50;23.60;90.10
5086;DHT22;4715;51.660;7.082;2022-07-18T07:25:16;23.70;90.00
5086;DHT22;4715;51.660;7.082;2022-07-18T07:27:39;23.80;89.50
5086;DHT22;4715;51.660;7.082;2022-07-18T07:30:03;23.90;89.10
5086;DHT22;4715;51.660;7.082;2022-07-18T07:32:25;24.10;88.60
5086;DHT22;4715;51.660;7.082;2022-07-18T07:34:48;24.20;88.10
5086;DHT22;4715;51.660;7.082;2022-07-18T07:37:11;24.30;87.70
5086;DHT22;4715;51.660;7.082;2022-07-18T07:39:33;24.40;87.20
5086;DHT22;4715;51.660;7.082;2022-07-18T07:41:55;24.50;86.60
5086;DHT22;4715;51.660;7.082;2022-07-18T07:44:17;24.60;86.20
5086;DHT22;4715;51.660;7.082;2022-07-18T07:46:40;24.60;85.70
5086;DHT22;4715;51.660;7.082;2022-07-18T07:49:02;24.70;85.60
5086;DHT22;4715;51.660;7.082;2022-07-18T07:51:24;24.80;85.50
5086;DHT22;4715;51.660;7.082;2022-07-18T07:53:47;24.80;85.20
5086;DHT22;4715;51.660;7.082;2022-07-18T07:56:11;24.90;84.80
5086;DHT22;4715;51.660;7.082;2022-07-18T07:58:35;25.00;84.40
5086;DHT22;4715;51.660;7.082;2022-07-18T08:00:59;25.00;84.30
5086;DHT22;4715;51.660;7.082;2022-07-18T08:03:22;25.10;83.70
5086;DHT22;4715;51.660;7.082;2022-07-18T08:05:46;25.10;83.30
5086;DHT22;4715;51.660;7.082;2022-07-18T08:08:08;25.20;83.70
5086;DHT22;4715;51.660;7.082;2022-07-18T08:10:31;25.30;83.90
5086;DHT22;4715;51.660;7.082;2022-07-18T08:12:53;25.40;83.70
5086;DHT22;4715;51.660;7.082;2022-07-18T08:15:16;25.90;83.50
5086;DHT22;4715;51.660;7.082;2022-07-18T08:17:38;25.90;83.50
5086;DHT22;4715;51.660;7.082;2022-07-18T08:20:02;25.90;84.20
5086;DHT22;4715;51.660;7.082;2022-07-18T08:22:24;26.00;83.60
5086;DHT22;4715;51.660;7.082;2022-07-18T08:24:46;26.00;83.60
5086;DHT22;4715;51.660;7.082;2022-07-18T08:27:08;26.10;83.70
5086;DHT22;4715;51.660;7.082;2022-07-18T08:29:31;26.20;83.10
5086;DHT22;4715;51.660;7.082;2022-07-18T08:31:53;26.20;83.10
5086;DHT22;4715;51.660;7.082;2022-07-18T08:34:15;26.30;82.90
5086;DHT22;4715;51.660;7.082;2022-07-18T08:36:38;26.40;82.70
5086;DHT22;4715;51.660;7.082;2022-07-18T08:39:00;26.50;82.70
5086;DHT22;4715;51.660;7.082;2022-07-18T08:41:23;26.70;82.70
5086;DHT22;4715;51.660;7.082;2022-07-18T08:43:45;26.80;80.80
5086;DHT22;4715;51.660;7.082;2022-07-18T08:46:07;26.80;80.50
5086;DHT22;4715;51.660;7.082;2022-07-18T08:48:30;26.80;80.20
5086;DHT22;4715;51.660;7.082;2022-07-18T08:50:53;26.90;80.20
5086;DHT22;4715;51.660;7.082;2022-07-18T08:53:18;26.90;80.00
5086;DHT22;4715;51.660;7.082;2022-07-18T08:55:40;27.00;80.80
5086;DHT22;4715;51.660;7.082;2022-07-18T08:58:02;27.10;79.90
5086;DHT22;4715;51.660;7.082;2022-07-18T09:00:23;27.30;79.80
5086;DHT22;4715;51.660;7.082;2022-07-18T09:02:45;27.40;79.30
5086;DHT22;4715;51.660;7.082;2022-07-18T09:05:18;27.50;78.80
5086;DHT22;4715;51.660;7.082;2022-07-18T09:07:40;27.70;78.40
5086;DHT22;4715;51.660;7.082;2022-07-18T09:10:05;27.80;78.60
5086;DHT22;4715;51.660;7.082;2022-07-18T09:12:29;28.00;78.60
5086;DHT22;4715;51.660;7.082;2022-07-18T09:14:52;28.20;78.10
5086;DHT22;4715;51.660;7.082;2022-07-18T09:17:16;28.40;77.90
5086;DHT22;4715;51.660;7.082;2022-07-18T09:19:39;28.50;77.20
5086;DHT22;4715;51.660;7.082;2022-07-18T09:22:19;28.60;77.00
5086;DHT22;4715;51.660;7.082;2022-07-18T09:24:58;28.70;76.60
5086;DHT22;4715;51.660;7.082;2022-07-18T09:27:27;28.80;76.40
5086;DHT22;4715;51.660;7.082;2022-07-18T09:30:06;29.00;76.30
5086;DHT22;4715;51.660;7.082;2022-07-18T09:32:28;29.10;75.40
5086;DHT22;4715;51.660;7.082;2022-07-18T09:34:50;29.20;74.60
5086;DHT22;4715;51.660;7.082;2022-07-18T09:37:12;29.30;74.20
5086;DHT22;4715;51.660;7.082;2022-07-18T09:39:35;29.30;73.90
5086;DHT22;4715;51.660;7.082;2022-07-18T09:42:13;29.40;74.80
5086;DHT22;4715;51.660;7.082;2022-07-18T09:44:37;29.50;73.90
5086;DHT22;4715;51.660;7.082;2022-07-18T09:46:59;29.60;73.70
5086;DHT22;4715;51.660;7.082;2022-07-18T09:49:28;29.80;73.40
5086;DHT22;4715;51.660;7.082;2022-07-18T09:52:02;30.00;72.50
5086;DHT22;4715;51.660;7.082;2022-07-18T09:54:35;30.10;70.90
5086;DHT22;4715;51.660;7.082;2022-07-18T09:56:57;30.00;70.70
5086;DHT22;4715;51.660;7.082;2022-07-18T09:59:20;30.00;70.70
5086;DHT22;4715;51.660;7.082;2022-07-18T10:01:43;30.10;70.90
5086;DHT22;4715;51.660;7.082;2022-07-18T10:04:07;30.30;69.90
5086;DHT22;4715;51.660;7.082;2022-07-18T10:06:29;30.30;69.00
5086;DHT22;4715;51.660;7.082;2022-07-18T10:08:53;30.40;68.60
5086;DHT22;4715;51.660;7.082;2022-07-18T10:11:16;30.40;66.70
5086;DHT22;4715;51.660;7.082;2022-07-18T10:13:39;30.40;66.20
5086;DHT22;4715;51.660;7.082;2022-07-18T10:16:02;30.50;64.50
5086;DHT22;4715;51.660;7.082;2022-07-18T10:18:34;30.50;64.40
5086;DHT22;4715;51.660;7.082;2022-07-18T10:20:59;30.60;64.70
5086;DHT22;4715;51.660;7.082;2022-07-18T10:23:26;30.60;63.80
5086;DHT22;4715;51.660;7.082;2022-07-18T10:26:11;30.70;63.40
5086;DHT22;4715;51.660;7.082;2022-07-18T10:28:34;30.90;62.90
5086;DHT22;4715;51.660;7.082;2022-07-18T10:31:12;30.90;62.20
5086;DHT22;4715;51.660;7.082;2022-07-18T10:33:42;31.00;61.80
5086;DHT22;4715;51.660;7.082;2022-07-18T10:36:08;31.00;60.40
5086;DHT22;4715;51.660;7.082;2022-07-18T10:38:31;31.00;60.70
5086;DHT22;4715;51.660;7.082;2022-07-18T10:41:10;31.00;60.00
5086;DHT22;4715;51.660;7.082;2022-07-18T10:43:36;31.10;59.60
5086;DHT22;4715;51.660;7.082;2022-07-18T10:45:59;31.10;59.20
5086;DHT22;4715;51.660;7.082;2022-07-18T10:51:35;31.10;57.90
5086;DHT22;4715;51.660;7.082;2022-07-18T10:54:10;31.00;57.90
5086;DHT22;4715;51.660;7.082;2022-07-18T10:57:07;31.10;58.30
5086;DHT22;4715;51.660;7.082;2022-07-18T10:59:30;31.20;58.50
5086;DHT22;4715;51.660;7.082;2022-07-18T11:01:55;31.30;58.50
5086;DHT22;4715;51.660;7.082;2022-07-18T11:04:25;31.40;58.30
5086;DHT22;4715;51.660;7.082;2022-07-18T11:06:56;31.50;58.20
5086;DHT22;4715;51.660;7.082;2022-07-18T11:09:33;31.60;56.80
5086;DHT22;4715;51.660;7.082;2022-07-18T11:15:11;31.50;56.50
5086;DHT22;4715;51.660;7.082;2022-07-18T11:18:01;31.60;56.80
5086;DHT22;4715;51.660;7.082;2022-07-18T11:20:35;31.80;56.60
5086;DHT22;4715;51.660;7.082;2022-07-18T11:22:59;31.90;56.70
5086;DHT22;4715;51.660;7.082;2022-07-18T11:25:25;31.90;56.50
5086;DHT22;4715;51.660;7.082;2022-07-18T11:27:48;31.80;56.50
5086;DHT22;4715;51.660;7.082;2022-07-18T11:30:16;31.80;56.50
5086;DHT22;4715;51.660;7.082;2022-07-18T11:32:38;31.80;56.10
5086;DHT22;4715;51.660;7.082;2022-07-18T11:35:00;31.80;55.80
5086;DHT22;4715;51.660;7.082;2022-07-18T11:37:26;31.80;56.00
5086;DHT22;4715;51.660;7.082;2022-07-18T11:39:49;31.90;56.00
5086;DHT22;4715;51.660;7.082;2022-07-18T11:42:11;31.90;55.80
5086;DHT22;4715;51.660;7.082;2022-07-18T11:44:33;32.00;55.30
5086;DHT22;4715;51.660;7.082;2022-07-18T11:47:03;32.10;55.70
5086;DHT22;4715;51.660;7.082;2022-07-18T11:49:26;32.20;55.60
5086;DHT22;4715;51.660;7.082;2022-07-18T11:51:49;32.30;55.60
5086;DHT22;4715;51.660;7.082;2022-07-18T11:54:12;32.50;55.80
5086;DHT22;4715;51.660;7.082;2022-07-18T11:56:49;32.60;54.90
5086;DHT22;4715;51.660;7.082;2022-07-18T11:59:11;32.60;54.30
5086;DHT22;4715;51.660;7.082;2022-07-18T12:01:33;32.40;54.50
5086;DHT22;4715;51.660;7.082;2022-07-18T12:03:55;32.40;54.70
5086;DHT22;4715;51.660;7.082;2022-07-18T12:06:19;32.40;54.80
5086;DHT22;4715;51.660;7.082;2022-07-18T12:08:42;32.60;54.60
5086;DHT22;4715;51.660;7.082;2022-07-18T12:11:08;32.80;54.60
5086;DHT22;4715;51.660;7.082;2022-07-18T12:13:49;32.80;54.00
5086;DHT22;4715;51.660;7.082;2022-07-18T12:16:29;32.90;53.60
5086;DHT22;4715;51.660;7.082;2022-07-18T12:18:53;32.90;54.20
5086;DHT22;4715;51.660;7.082;2022-07-18T12:21:15;32.80;53.30
5086;DHT22;4715;51.660;7.082;2022-07-18T12:23:36;32.80;53.10
5086;DHT22;4715;51.660;7.082;2022-07-18T12:25:59;32.80;53.10
5086;DHT22;4715;51.660;7.082;2022-07-18T12:28:22;32.90;53.20
5086;DHT22;4715;51.660;7.082;2022-07-18T12:30:48;33.00;53.30
5086;DHT22;4715;51.660;7.082;2022-07-18T12:33:11;33.00;52.90
5086;DHT22;4715;51.660;7.082;2022-07-18T12:35:35;32.90;52.80
5086;DHT22;4715;51.660;7.082;2022-07-18T12:37:59;32.90;52.80
5086;DHT22;4715;51.660;7.082;2022-07-18T12:40:22;32.80;52.80
5086;DHT22;4715;51.660;7.082;2022-07-18T12:42:44;32.80;53.00
5086;DHT22;4715;51.660;7.082;2022-07-18T12:45:07;33.00;53.10
5086;DHT22;4715;51.660;7.082;2022-07-18T12:47:32;33.10;53.00
5086;DHT22;4715;51.660;7.082;2022-07-18T12:49:53;33.30;53.10
5086;DHT22;4715;51.660;7.082;2022-07-18T12:52:19;33.50;53.10
5086;DHT22;4715;51.660;7.082;2022-07-18T12:54:44;33.60;52.80
5086;DHT22;4715;51.660;7.082;2022-07-18T12:57:06;33.70;52.70
5086;DHT22;4715;51.660;7.082;2022-07-18T12:59:28;33.80;52.60
5086;DHT22;4715;51.660;7.082;2022-07-18T13:01:50;33.90;52.70
5086;DHT22;4715;51.660;7.082;2022-07-18T13:04:13;33.90;52.60
5086;DHT22;4715;51.660;7.082;2022-07-18T13:06:35;33.80;52.20
5086;DHT22;4715;51.660;7.082;2022-07-18T13:09:01;33.60;51.80
5086;DHT22;4715;51.660;7.082;2022-07-18T13:11:25;33.40;52.20
5086;DHT22;4715;51.660;7.082;2022-07-18T13:13:47;33.40;52.30
5086;DHT22;4715;51.660;7.082;2022-07-18T13:16:09;33.50;52.20
5086;DHT22;4715;51.660;7.082;2022-07-18T13:18:31;33.50;52.00
5086;DHT22;4715;51.660;7.082;2022-07-18T13:20:54;33.50;52.70
5086;DHT22;4715;51.660;7.082;2022-07-18T13:23:16;33.50;52.20
5086;DHT22;4715;51.660;7.082;2022-07-18T13:25:38;33.50;52.10
5086;DHT22;4715;51.660;7.082;2022-07-18T13:28:00;33.50;52.00
5086;DHT22;4715;51.660;7.082;2022-07-18T13:30:22;33.40;52.20
5086;DHT22;4715;51.660;7.082;2022-07-18T13:32:44;33.50;52.30
5086;DHT22;4715;51.660;7.082;2022-07-18T13:35:07;33.60;52.30
5086;DHT22;4715;51.660;7.082;2022-07-18T13:37:31;33.60;52.40
5086;DHT22;4715;51.660;7.082;2022-07-18T13:39:53;33.70;52.40
5086;DHT22;4715;51.660;7.082;2022-07-18T13:42:15;33.70;52.10
5086;DHT22;4715;51.660;7.082;2022-07-18T13:44:37;33.60;52.00
5086;DHT22;4715;51.660;7.082;2022-07-18T13:46:59;33.70;52.30
5086;DHT22;4715;51.660;7.082;2022-07-18T13:49:21;33.70;51.70
5086;DHT22;4715;51.660;7.082;2022-07-18T13:51:43;33.70;51.70
5086;DHT22;4715;51.660;7.082;2022-07-18T13:54:07;33.70;51.70
5086;DHT22;4715;51.660;7.082;2022-07-18T13:56:29;33.60;51.60
5086;DHT22;4715;51.660;7.082;2022-07-18T13:58:51;33.60;51.50
5086;DHT22;4715;51.660;7.082;2022-07-18T14:01:13;33.60;51.50
5086;DHT22;4715;51.660;7.082;2022-07-18T14:03:36;33.60;51.20
5086;DHT22;4715;51.660;7.082;2022-07-18T14:05:58;33.60;51.20
5086;DHT22;4715;51.660;7.082;2022-07-18T14:08:20;33.50;51.30
5086;DHT22;4715;51.660;7.082;2022-07-18T14:10:43;33.50;51.40
5086;DHT22;4715;51.660;7.082;2022-07-18T14:13:05;33.60;51.50
5086;DHT22;4715;51.660;7.082;2022-07-18T14:15:30;33.60;51.30
5086;DHT22;4715;51.660;7.082;2022-07-18T14:17:52;33.60;51.40
5086;DHT22;4715;51.660;7.082;2022-07-18T14:20:14;33.60;51.20
5086;DHT22;4715;51.660;7.082;2022-07-18T14:22:40;33.60;50.50
5086;DHT22;4715;51.660;7.082;2022-07-18T14:25:04;33.50;49.90
5086;DHT22;4715;51.660;7.082;2022-07-18T14:27:31;33.50;50.10
5086;DHT22;4715;51.660;7.082;2022-07-18T14:29:53;33.40;50.00
5086;DHT22;4715;51.660;7.082;2022-07-18T14:32:20;33.40;50.20
5086;DHT22;4715;51.660;7.082;2022-07-18T14:34:42;33.40;50.10
5086;DHT22;4715;51.660;7.082;2022-07-18T14:37:04;33.40;50.20
5086;DHT22;4715;51.660;7.082;2022-07-18T14:39:26;33.40;51.00
5086;DHT22;4715;51.660;7.082;2022-07-18T14:41:48;33.40;50.20
5086;DHT22;4715;51.660;7.082;2022-07-18T14:44:11;33.40;50.20
5086;DHT22;4715;51.660;7.082;2022-07-18T14:46:33;33.30;50.10
5086;DHT22;4715;51.660;7.082;2022-07-18T14:48:55;33.30;50.30
5086;DHT22;4715;51.660;7.082;2022-07-18T14:51:17;33.30;50.50
5086;DHT22;4715;51.660;7.082;2022-07-18T14:53:45;33.30;50.50
5086;DHT22;4715;51.660;7.082;2022-07-18T14:56:07;33.40;50.50
5086;DHT22;4715;51.660;7.082;2022-07-18T14:58:29;33.40;50.40
5086;DHT22;4715;51.660;7.082;2022-07-18T15:00:52;33.50;50.40
5086;DHT22;4715;51.660;7.082;2022-07-18T15:03:14;33.50;50.50
5086;DHT22;4715;51.660;7.082;2022-07-18T15:05:36;33.50;50.40
5086;DHT22;4715;51.660;7.082;2022-07-18T15:07:58;33.40;50.30
5086;DHT22;4715;51.660;7.082;2022-07-18T15:10:20;33.40;50.40
5086;DHT22;4715;51.660;7.082;2022-07-18T15:12:42;33.40;50.60
5086;DHT22;4715;51.660;7.082;2022-07-18T15:15:20;33.40;50.70
5086;DHT22;4715;51.660;7.082;2022-07-18T15:17:44;33.50;50.30
5086;DHT22;4715;51.660;7.082;2022-07-18T15:20:06;33.50;50.30
5086;DHT22;4715;51.660;7.082;2022-07-18T15:22:28;33.40;50.20
5086;DHT22;4715;51.660;7.082;2022-07-18T15:24:50;33.40;50.30
5086;DHT22;4715;51.660;7.082;2022-07-18T15:27:12;33.40;50.50
5086;DHT22;4715;51.660;7.082;2022-07-18T15:29:34;33.40;50.50
5086;DHT22;4715;51.660;7.082;2022-07-18T15:31:56;33.50;50.50
5086;DHT22;4715;51.660;7.082;2022-07-18T15:34:20;33.60;50.50
5086;DHT22;4715;51.660;7.082;2022-07-18T15:36:44;33.60;50.20
5086;DHT22;4715;51.660;7.082;2022-07-18T15:39:06;33.50;50.20
5086;DHT22;4715;51.660;7.082;2022-07-18T15:41:30;33.50;50.40
5086;DHT22;4715;51.660;7.082;2022-07-18T15:43:52;33.40;50.40
5086;DHT22;4715;51.660;7.082;2022-07-18T15:46:14;33.40;50.50